sensor_id;sensor_type;location;lat;lon;timestamp;temperature;humidity
53498;DHT22;39382;47.168;16.008;2023-04-15T00:01:22;5.80;99.90
53498;DHT22;39382;47.168;16.008;2023-04-15T00:03:53;5.80;99.90
53498;DHT22;39382;47.168;16.008;2023-04-15T00:06:19;5.90;99.90
53498;DHT22;39382;47.168;16.008;2023-04-15T00:08:46;5.90;99.90
53498;DHT22;39382;47.168;16.008;2023-04-15T00:11:12;5.90;99.90
53498;DHT22;39382;47.168;16.008;2023-04-15T00:13:38;5.90;99.90
53498;DHT22;39382;47.168;16.008;2023-04-15T00:16:05;5.90;99.90
53498;DHT22;39382;47.168;16.008;2023-04-15T00:18:31;5.90;99.90
53498;DHT22;39382;47.168;16.008;2023-04-15T00:20:57;5.90;99.90
53498;DHT22;39382;47.168;16.008;2023-04-15T00:23:23;5.90;99.90
53498;DHT22;39382;47.168;16.008;2023-04-15T00:25:49;5.90;99.90
53498;DHT22;39382;47.168;16.008;2023-04-15T00:28:15;5.90;99.90
53498;DHT22;39382;47.168;16.008;2023-04-15T00:30:42;5.90;99.90
53498;DHT22;39382;47.168;16.008;2023-04-15T00:33:08;6.00;99.90
53498;DHT22;39382;47.168;16.008;2023-04-15T00:35:34;6.00;99.90
53498;DHT22;39382;47.168;16.008;2023-04-15T00:38:01;6.00;99.90
53498;DHT22;39382;47.168;16.008;2023-04-15T00:40:26;6.00;99.90
53498;DHT22;39382;47.168;16.008;2023-04-15T00:42:52;5.90;99.90
53498;DHT22;39382;47.168;16.008;2023-04-15T00:45:18;6.00;99.90
53498;DHT22;39382;47.168;16.008;2023-04-15T00:47:44;5.90;99.90
53498;DHT22;39382;47.168;16.008;2023-04-15T00:50:11;5.90;99.90
53498;DHT22;39382;47.168;16.008;2023-04-15T00:52:37;6.00;99.90
53498;DHT22;39382;47.168;16.008;2023-04-15T00:55:04;6.00;99.90
53498;DHT22;39382;47.168;16.008;2023-04-15T00:57:30;5.90;99.90
53498;DHT22;39382;47.168;16.008;2023-04-15T00:59:56;5.90;99.90
53498;DHT22;39382;47.168;16.008;2023-04-15T01:02:23;6.00;99.90
53498;DHT22;39382;47.168;16.008;2023-04-15T01:04:49;6.00;99.90
53498;DHT22;39382;47.168;16.008;2023-04-15T01:07:14;5.90;99.90
53498;DHT22;39382;47.168;16.008;2023-04-15T01:09:41;6.00;99.90
53498;DHT22;39382;47.168;16.008;2023-04-15T01:12:07;6.00;99.90
53498;DHT22;39382;47.168;16.008;2023-04-15T01:14:34;6.10;99.90
53498;DHT22;39382;47.168;16.008;2023-04-15T01:17:00;6.00;99.90
53498;DHT22;39382;47.168;16.008;2023-04-15T01:19:26;6.00;99.90
53498;DHT22;39382;47.168;16.008;2023-04-15T01:21:53;6.00;99.90
53498;DHT22;39382;47.168;16.008;2023-04-15T01:24:19;5.90;99.90
53498;DHT22;39382;47.168;16.008;2023-04-15T01:26:46;5.90;99.90
53498;DHT22;39382;47.168;16.008;2023-04-15T01:29:13;5.90;99.90
53498;DHT22;39382;47.168;16.008;2023-04-15T01:31:39;5.90;99.90
53498;DHT22;39382;47.168;16.008;2023-04-15T01:34:05;6.00;99.90
53498;DHT22;39382;47.168;16.008;2023-04-15T01:36:31;5.90;99.90
53498;DHT22;39382;47.168;16.008;2023-04-15T01:38:57;5.90;99.90
53498;DHT22;39382;47.168;16.008;2023-04-15T01:41:26;5.90;99.90
53498;DHT22;39382;47.168;16.008;2023-04-15T01:43:53;5.90;99.90
53498;DHT22;39382;47.168;16.008;2023-04-15T01:46:19;5.90;99.90
53498;DHT22;39382;47.168;16.008;2023-04-15T01:48:44;5.90;99.90
53498;DHT22;39382;47.168;16.008;2023-04-15T01:51:10;5.90;99.90
53498;DHT22;39382;47.168;16.008;2023-04-15T01:53:36;5.90;99.90
53498;DHT22;39382;47.168;16.008;2023-04-15T01:56:02;5.90;99.90
53498;DHT22;39382;47.168;16.008;2023-04-15T01:58:27;5.90;99.90
53498;DHT22;39382;47.168;16.008;2023-04-15T02:00:53;5.90;99.90
53498;DHT22;39382;47.168;16.008;2023-04-15T02:03:19;5.90;99.90
53498;DHT22;39382;47.168;16.008;2023-04-15T02:05:44;5.90;99.90
53498;DHT22;39382;47.168;16.008;2023-04-15T02:08:10;5.90;99.90
53498;DHT22;39382;47.168;16.008;2023-04-15T02:10:37;5.90;99.90
53498;DHT22;39382;47.168;16.008;2023-04-15T02:13:03;5.90;99.90
53498;DHT22;39382;47.168;16.008;2023-04-15T02:15:29;5.90;99.90
53498;DHT22;39382;47.168;16.008;2023-04-15T02:17:55;6.00;99.90
53498;DHT22;39382;47.168;16.008;2023-04-15T02:20:21;6.10;99.90
53498;DHT22;39382;47.168;16.008;2023-04-15T02:22:48;6.10;99.90
53498;DHT22;39382;47.168;16.008;2023-04-15T02:25:14;6.00;99.90
53498;DHT22;39382;47.168;16.008;2023-04-15T02:27:41;6.00;99.90
53498;DHT22;39382;47.168;16.008;2023-04-15T02:30:08;6.00;99.90
53498;DHT22;39382;47.168;16.008;2023-04-15T02:32:34;6.00;99.90
53498;DHT22;39382;47.168;16.008;2023-04-15T02:35:04;6.00;99.90
53498;DHT22;39382;47.168;16.008;2023-04-15T02:37:32;5.90;99.90
53498;DHT22;39382;47.168;16.008;2023-04-15T02:40:01;6.00;99.90
53498;DHT22;39382;47.168;16.008;2023-04-15T02:42:27;6.00;99.90
53498;DHT22;39382;47.168;16.008;2023-04-15T02:44:55;6.00;99.90
53498;DHT22;39382;47.168;16.008;2023-04-15T02:47:20;5.90;99.90
53498;DHT22;39382;47.168;16.008;2023-04-15T02:49:46;5.90;99.90
53498;DHT22;39382;47.168;16.008;2023-04-15T02:52:12;6.00;99.90
53498;DHT22;39382;47.168;16.008;2023-04-15T02:54:38;6.00;99.90
53498;DHT22;39382;47.168;16.008;2023-04-15T02:57:04;5.90;99.90
53498;DHT22;39382;47.168;16.008;2023-04-15T02:59:31;6.00;99.90
53498;DHT22;39382;47.168;16.008;2023-04-15T03:01:56;6.00;99.90
53498;DHT22;39382;47.168;16.008;2023-04-15T03:04:25;5.90;99.90
53498;DHT22;39382;47.168;16.008;2023-04-15T03:06:51;5.90;99.90
53498;DHT22;39382;47.168;16.008;2023-04-15T03:09:16;5.90;99.90
53498;DHT22;39382;47.168;16.008;2023-04-15T03:11:42;5.90;99.90
53498;DHT22;39382;47.168;16.008;2023-04-15T03:14:08;5.90;99.90
53498;DHT22;39382;47.168;16.008;2023-04-15T03:16:33;5.90;99.90
53498;DHT22;39382;47.168;16.008;2023-04-15T03:18:59;5.90;99.90
53498;DHT22;39382;47.168;16.008;2023-04-15T03:21:25;5.90;99.90
53498;DHT22;39382;47.168;16.008;2023-04-15T03:23:51;6.00;99.90
53498;DHT22;39382;47.168;16.008;2023-04-15T03:26:27;5.90;99.90
53498;DHT22;39382;47.168;16.008;2023-04-15T03:28:54;5.90;99.90
53498;DHT22;39382;47.168;16.008;2023-04-15T03:31:20;5.90;99.90
53498;DHT22;39382;47.168;16.008;2023-04-15T03:33:45;5.90;99.90
53498;DHT22;39382;47.168;16.008;2023-04-15T03:36:11;6.00;99.90
53498;DHT22;39382;47.168;16.008;2023-04-15T03:38:36;6.00;99.90
53498;DHT22;39382;47.168;16.008;2023-04-15T03:41:02;6.00;99.90
53498;DHT22;39382;47.168;16.008;2023-04-15T03:43:28;5.90;99.90
53498;DHT22;39382;47.168;16.008;2023-04-15T03:45:53;5.90;99.90
53498;DHT22;39382;47.168;16.008;2023-04-15T03:48:19;5.90;99.90
53498;DHT22;39382;47.168;16.008;2023-04-15T03:50:45;5.90;99.90
53498;DHT22;39382;47.168;16.008;2023-04-15T03:53:11;6.00;99.90
53498;DHT22;39382;47.168;16.008;2023-04-15T03:55:36;6.00;99.90
53498;DHT22;39382;47.168;16.008;2023-04-15T03:58:02;6.00;99.90
53498;DHT22;39382;47.168;16.008;2023-04-15T04:00:28;6.00;99.90
53498;DHT22;39382;47.168;16.008;2023-04-15T04:02:53;6.00;99.90
53498;DHT22;39382;47.168;16.008;2023-04-15T04:05:19;6.10;99.90
53498;DHT22;39382;47.168;16.008;2023-04-15T04:07:45;6.00;99.90
53498;DHT22;39382;47.168;16.008;2023-04-15T04:10:10;6.00;99.90
53498;DHT22;39382;47.168;16.008;2023-04-15T04:12:36;6.00;99.90
53498;DHT22;39382;47.168;16.008;2023-04-15T04:15:02;5.90;99.90
53498;DHT22;39382;47.168;16.008;2023-04-15T04:17:27;5.90;99.90
53498;DHT22;39382;47.168;16.008;2023-04-15T04:19:53;5.90;99.90
53498;DHT22;39382;47.168;16.008;2023-04-15T04:22:22;5.80;99.90
53498;DHT22;39382;47.168;16.008;2023-04-15T04:24:51;5.80;99.90
53498;DHT22;39382;47.168;16.008;2023-04-15T04:27:17;5.90;99.90
53498;DHT22;39382;47.168;16.008;2023-04-15T04:29:42;5.90;99.90
53498;DHT22;39382;47.168;16.008;2023-04-15T04:32:08;5.90;99.90
53498;DHT22;39382;47.168;16.008;2023-04-15T04:34:34;5.90;99.90
53498;DHT22;39382;47.168;16.008;2023-04-15T04:36:59;5.90;99.90
53498;DHT22;39382;47.168;16.008;2023-04-15T04:39:25;5.90;99.90
53498;DHT22;39382;47.168;16.008;2023-04-15T04:41:51;5.90;99.90
53498;DHT22;39382;47.168;16.008;2023-04-15T04:44:17;5.90;99.90
53498;DHT22;39382;47.168;16.008;2023-04-15T04:46:42;5.90;99.90
53498;DHT22;39382;47.168;16.008;2023-04-15T04:49:08;6.00;99.90
53498;DHT22;39382;47.168;16.008;2023-04-15T04:51:34;6.00;99.90
53498;DHT22;39382;47.168;16.008;2023-04-15T04:54:00;6.00;99.90
53498;DHT22;39382;47.168;16.008;2023-04-15T04:56:25;6.00;99.90
53498;DHT22;39382;47.168;16.008;2023-04-15T04:58:51;6.00;99.90
53498;DHT22;39382;47.168;16.008;2023-04-15T05:01:17;5.90;99.90
53498;DHT22;39382;47.168;16.008;2023-04-15T05:03:43;6.00;99.90
53498;DHT22;39382;47.168;16.008;2023-04-15T05:06:08;6.00;99.90
53498;DHT22;39382;47.168;16.008;2023-04-15T05:08:35;6.10;99.90
53498;DHT22;39382;47.168;16.008;2023-04-15T05:11:01;6.10;99.90
53498;DHT22;39382;47.168;16.008;2023-04-15T05:13:27;6.10;99.90
53498;DHT22;39382;47.168;16.008;2023-04-15T05:15:52;6.10;99.90
53498;DHT22;39382;47.168;16.008;2023-04-15T05:18:18;6.10;99.90
53498;DHT22;39382;47.168;16.008;2023-04-15T05:20:44;6.10;99.90
53498;DHT22;39382;47.168;16.008;2023-04-15T05:23:09;6.10;99.90
53498;DHT22;39382;47.168;16.008;2023-04-15T05:25:35;6.10;99.90
53498;DHT22;39382;47.168;16.008;2023-04-15T05:28:01;6.10;99.90
53498;DHT22;39382;47.168;16.008;2023-04-15T05:30:26;6.10;99.90
53498;DHT22;39382;47.168;16.008;2023-04-15T05:32:52;6.10;99.90
53498;DHT22;39382;47.168;16.008;2023-04-15T05:35:17;6.20;99.90
53498;DHT22;39382;47.168;16.008;2023-04-15T05:37:44;6.80;99.90
53498;DHT22;39382;47.168;16.008;2023-04-15T05:40:10;6.60;99.90
53498;DHT22;39382;47.168;16.008;2023-04-15T05:42:36;6.50;99.90
53498;DHT22;39382;47.168;16.008;2023-04-15T05:45:02;6.40;99.90
53498;DHT22;39382;47.168;16.008;2023-04-15T05:47:30;6.30;99.90
53498;DHT22;39382;47.168;16.008;2023-04-15T05:49:56;6.40;99.90
53498;DHT22;39382;47.168;16.008;2023-04-15T05:52:23;6.30;99.90
53498;DHT22;39382;47.168;16.008;2023-04-15T05:54:49;6.30;99.90
53498;DHT22;39382;47.168;16.008;2023-04-15T05:57:15;6.30;99.90
53498;DHT22;39382;47.168;16.008;2023-04-15T05:59:41;6.30;99.90
53498;DHT22;39382;47.168;16.008;2023-04-15T06:02:08;6.30;99.90
53498;DHT22;39382;47.168;16.008;2023-04-15T06:04:34;6.30;99.90
53498;DHT22;39382;47.168;16.008;2023-04-15T06:06:59;6.30;99.90
53498;DHT22;39382;47.168;16.008;2023-04-15T06:09:25;6.30;99.90
53498;DHT22;39382;47.168;16.008;2023-04-15T06:11:51;6.30;99.90
53498;DHT22;39382;47.168;16.008;2023-04-15T06:14:17;6.30;99.90
53498;DHT22;39382;47.168;16.008;2023-04-15T06:16:43;6.40;99.90
53498;DHT22;39382;47.168;16.008;2023-04-15T06:19:08;6.40;99.90
53498;DHT22;39382;47.168;16.008;2023-04-15T06:21:35;6.40;99.90
53498;DHT22;39382;47.168;16.008;2023-04-15T06:24:00;6.40;99.90
53498;DHT22;39382;47.168;16.008;2023-04-15T06:26:26;6.40;99.90
53498;DHT22;39382;47.168;16.008;2023-04-15T06:28:52;6.50;99.90
53498;DHT22;39382;47.168;16.008;2023-04-15T06:31:18;6.40;99.90
53498;DHT22;39382;47.168;16.008;2023-04-15T06:33:44;6.50;99.90
53498;DHT22;39382;47.168;16.008;2023-04-15T06:36:09;6.50;99.90
53498;DHT22;39382;47.168;16.008;2023-04-15T06:38:35;6.50;99.90
53498;DHT22;39382;47.168;16.008;2023-04-15T06:41:02;6.50;99.90
53498;DHT22;39382;47.168;16.008;2023-04-15T06:43:28;6.40;99.90
53498;DHT22;39382;47.168;16.008;2023-04-15T06:45:54;6.50;99.90
53498;DHT22;39382;47.168;16.008;2023-04-15T06:48:19;6.50;99.90
53498;DHT22;39382;47.168;16.008;2023-04-15T06:50:45;6.50;99.90
53498;DHT22;39382;47.168;16.008;2023-04-15T06:53:10;6.60;99.90
53498;DHT22;39382;47.168;16.008;2023-04-15T06:55:36;6.60;99.90
53498;DHT22;39382;47.168;16.008;2023-04-15T06:58:02;6.70;99.90
53498;DHT22;39382;47.168;16.008;2023-04-15T07:00:28;6.70;99.90
53498;DHT22;39382;47.168;16.008;2023-04-15T07:02:53;6.70;99.90
53498;DHT22;39382;47.168;16.008;2023-04-15T07:05:20;6.70;99.90
53498;DHT22;39382;47.168;16.008;2023-04-15T07:07:45;6.70;99.90
53498;DHT22;39382;47.168;16.008;2023-04-15T07:10:11;6.70;99.90
53498;DHT22;39382;47.168;16.008;2023-04-15T07:12:37;6.60;99.90
53498;DHT22;39382;47.168;16.008;2023-04-15T07:15:03;6.70;99.90
53498;DHT22;39382;47.168;16.008;2023-04-15T07:17:29;6.70;99.90
53498;DHT22;39382;47.168;16.008;2023-04-15T07:19:54;6.60;99.90
53498;DHT22;39382;47.168;16.008;2023-04-15T07:22:20;6.60;99.90
53498;DHT22;39382;47.168;16.008;2023-04-15T07:24:46;6.60;99.90
53498;DHT22;39382;47.168;16.008;2023-04-15T07:27:12;6.60;99.90
53498;DHT22;39382;47.168;16.008;2023-04-15T07:29:37;6.60;99.90
53498;DHT22;39382;47.168;16.008;2023-04-15T07:32:03;6.70;99.90
53498;DHT22;39382;47.168;16.008;2023-04-15T07:34:29;6.60;99.90
53498;DHT22;39382;47.168;16.008;2023-04-15T07:36:54;6.60;99.90
53498;DHT22;39382;47.168;16.008;2023-04-15T07:39:20;6.70;99.90
53498;DHT22;39382;47.168;16.008;2023-04-15T07:41:46;8.10;99.90
53498;DHT22;39382;47.168;16.008;2023-04-15T07:44:13;8.50;99.90
53498;DHT22;39382;47.168;16.008;2023-04-15T07:46:39;8.00;99.90
53498;DHT22;39382;47.168;16.008;2023-04-15T07:49:04;7.70;99.90
53498;DHT22;39382;47.168;16.008;2023-04-15T07:51:30;7.50;99.90
53498;DHT22;39382;47.168;16.008;2023-04-15T07:53:56;7.30;99.90
53498;DHT22;39382;47.168;16.008;2023-04-15T07:56:22;7.10;99.90
53498;DHT22;39382;47.168;16.008;2023-04-15T07:58:48;7.10;99.90
53498;DHT22;39382;47.168;16.008;2023-04-15T08:01:13;7.80;99.90
53498;DHT22;39382;47.168;16.008;2023-04-15T08:03:39;7.60;99.90
53498;DHT22;39382;47.168;16.008;2023-04-15T08:06:05;7.40;99.90
53498;DHT22;39382;47.168;16.008;2023-04-15T08:08:30;7.30;99.90
53498;DHT22;39382;47.168;16.008;2023-04-15T08:10:57;7.30;99.90
53498;DHT22;39382;47.168;16.008;2023-04-15T08:13:23;7.20;99.90
53498;DHT22;39382;47.168;16.008;2023-04-15T08:16:12;7.30;99.90
53498;DHT22;39382;47.168;16.008;2023-04-15T08:18:37;7.20;99.90
53498;DHT22;39382;47.168;16.008;2023-04-15T08:21:03;7.20;99.90
53498;DHT22;39382;47.168;16.008;2023-04-15T08:23:30;7.20;99.90
53498;DHT22;39382;47.168;16.008;2023-04-15T08:25:56;7.20;99.90
53498;DHT22;39382;47.168;16.008;2023-04-15T08:28:22;7.20;99.90
53498;DHT22;39382;47.168;16.008;2023-04-15T08:30:47;7.20;99.90
53498;DHT22;39382;47.168;16.008;2023-04-15T08:33:13;7.30;99.90
53498;DHT22;39382;47.168;16.008;2023-04-15T08:35:39;7.30;99.90
53498;DHT22;39382;47.168;16.008;2023-04-15T08:38:05;7.40;99.90
53498;DHT22;39382;47.168;16.008;2023-04-15T08:40:39;7.40;99.90
53498;DHT22;39382;47.168;16.008;2023-04-15T08:43:10;7.40;99.90
53498;DHT22;39382;47.168;16.008;2023-04-15T08:45:38;7.50;99.90
53498;DHT22;39382;47.168;16.008;2023-04-15T08:48:04;7.50;99.90
53498;DHT22;39382;47.168;16.008;2023-04-15T08:50:31;7.50;99.90
53498;DHT22;39382;47.168;16.008;2023-04-15T08:53:01;7.60;99.90
53498;DHT22;39382;47.168;16.008;2023-04-15T08:55:29;7.80;99.90
53498;DHT22;39382;47.168;16.008;2023-04-15T08:57:58;7.90;99.90
53498;DHT22;39382;47.168;16.008;2023-04-15T09:00:24;7.90;99.90
53498;DHT22;39382;47.168;16.008;2023-04-15T09:02:51;8.10;99.90
53498;DHT22;39382;47.168;16.008;2023-04-15T09:05:17;8.20;99.90
53498;DHT22;39382;47.168;16.008;2023-04-15T09:07:42;8.20;99.90
53498;DHT22;39382;47.168;16.008;2023-04-15T09:10:09;8.30;99.90
53498;DHT22;39382;47.168;16.008;2023-04-15T09:12:35;8.40;99.90
53498;DHT22;39382;47.168;16.008;2023-04-15T09:15:02;8.60;99.90
53498;DHT22;39382;47.168;16.008;2023-04-15T09:17:28;8.60;99.90
53498;DHT22;39382;47.168;16.008;2023-04-15T09:20:17;8.50;99.90
53498;DHT22;39382;47.168;16.008;2023-04-15T09:30:15;8.50;99.90
53498;DHT22;39382;47.168;16.008;2023-04-15T09:32:58;8.50;99.90
53498;DHT22;39382;47.168;16.008;2023-04-15T09:35:26;8.50;99.90
53498;DHT22;39382;47.168;16.008;2023-04-15T09:37:52;8.50;99.90
53498;DHT22;39382;47.168;16.008;2023-04-15T09:40:40;8.40;99.90
53498;DHT22;39382;47.168;16.008;2023-04-15T09:43:08;8.50;99.90
53498;DHT22;39382;47.168;16.008;2023-04-15T09:45:34;8.60;99.90
53498;DHT22;39382;47.168;16.008;2023-04-15T09:48:22;8.60;99.90
53498;DHT22;39382;47.168;16.008;2023-04-15T09:50:51;8.80;99.90
53498;DHT22;39382;47.168;16.008;2023-04-15T09:53:20;8.90;99.90
53498;DHT22;39382;47.168;16.008;2023-04-15T09:55:57;9.00;99.90
53498;DHT22;39382;47.168;16.008;2023-04-15T09:58:31;9.00;99.90
53498;DHT22;39382;47.168;16.008;2023-04-15T10:00:58;9.10;99.90
53498;DHT22;39382;47.168;16.008;2023-04-15T10:03:25;9.10;99.90
53498;DHT22;39382;47.168;16.008;2023-04-15T10:05:53;9.00;99.90
53498;DHT22;39382;47.168;16.008;2023-04-15T10:08:28;9.10;99.90
53498;DHT22;39382;47.168;16.008;2023-04-15T10:10:54;9.10;99.90
53498;DHT22;39382;47.168;16.008;2023-04-15T10:13:23;9.00;99.90
53498;DHT22;39382;47.168;16.008;2023-04-15T10:15:57;9.20;99.90
53498;DHT22;39382;47.168;16.008;2023-04-15T10:18:26;9.20;99.90
53498;DHT22;39382;47.168;16.008;2023-04-15T10:20:52;9.20;99.90
53498;DHT22;39382;47.168;16.008;2023-04-15T10:23:24;9.20;99.90
53498;DHT22;39382;47.168;16.008;2023-04-15T10:25:52;9.30;99.90
53498;DHT22;39382;47.168;16.008;2023-04-15T10:28:21;9.30;99.90
53498;DHT22;39382;47.168;16.008;2023-04-15T10:30:47;9.20;99.90
53498;DHT22;39382;47.168;16.008;2023-04-15T10:33:17;9.40;99.90
53498;DHT22;39382;47.168;16.008;2023-04-15T10:35:44;9.40;99.90
53498;DHT22;39382;47.168;16.008;2023-04-15T10:41:18;9.50;99.90
53498;DHT22;39382;47.168;16.008;2023-04-15T10:43:47;9.50;99.90
53498;DHT22;39382;47.168;16.008;2023-04-15T10:49:13;9.20;99.90
53498;DHT22;39382;47.168;16.008;2023-04-15T10:51:41;9.30;99.90
53498;DHT22;39382;47.168;16.008;2023-04-15T10:54:32;9.40;99.90
53498;DHT22;39382;47.168;16.008;2023-04-15T10:59:31;9.70;99.90
53498;DHT22;39382;47.168;16.008;2023-04-15T11:02:00;9.70;99.90
53498;DHT22;39382;47.168;16.008;2023-04-15T11:04:57;10.00;99.90
53498;DHT22;39382;47.168;16.008;2023-04-15T11:09:57;10.00;99.90
53498;DHT22;39382;47.168;16.008;2023-04-15T11:12:33;10.00;99.90
53498;DHT22;39382;47.168;16.008;2023-04-15T11:15:31;10.20;99.90
53498;DHT22;39382;47.168;16.008;2023-04-15T11:17:59;10.30;99.90
53498;DHT22;39382;47.168;16.008;2023-04-15T11:20:33;10.20;99.90
53498;DHT22;39382;47.168;16.008;2023-04-15T11:22:58;10.30;99.90
53498;DHT22;39382;47.168;16.008;2023-04-15T11:25:25;10.40;99.90
53498;DHT22;39382;47.168;16.008;2023-04-15T11:27:52;10.40;99.90
53498;DHT22;39382;47.168;16.008;2023-04-15T11:30:27;10.40;99.90
53498;DHT22;39382;47.168;16.008;2023-04-15T11:32:56;10.30;99.90
53498;DHT22;39382;47.168;16.008;2023-04-15T11:35:22;10.30;99.90
53498;DHT22;39382;47.168;16.008;2023-04-15T11:37:49;10.30;99.90
53498;DHT22;39382;47.168;16.008;2023-04-15T11:40:16;10.40;99.90
53498;DHT22;39382;47.168;16.008;2023-04-15T11:42:44;10.30;99.90
53498;DHT22;39382;47.168;16.008;2023-04-15T11:45:13;10.60;99.90
53498;DHT22;39382;47.168;16.008;2023-04-15T11:47:40;10.60;99.90
53498;DHT22;39382;47.168;16.008;2023-04-15T11:50:20;10.60;99.90
53498;DHT22;39382;47.168;16.008;2023-04-15T11:52:56;10.50;99.90
53498;DHT22;39382;47.168;16.008;2023-04-15T11:55:23;10.70;99.90
53498;DHT22;39382;47.168;16.008;2023-04-15T11:58:13;10.80;99.90
53498;DHT22;39382;47.168;16.008;2023-04-15T12:00:41;10.80;99.90
53498;DHT22;39382;47.168;16.008;2023-04-15T12:03:23;10.90;99.90
53498;DHT22;39382;47.168;16.008;2023-04-15T12:13:57;10.50;99.90
53498;DHT22;39382;47.168;16.008;2023-04-15T12:16:24;10.40;99.90
53498;DHT22;39382;47.168;16.008;2023-04-15T12:18:52;10.20;99.90
53498;DHT22;39382;47.168;16.008;2023-04-15T12:21:21;10.20;99.90
53498;DHT22;39382;47.168;16.008;2023-04-15T12:23:50;10.40;99.90
53498;DHT22;39382;47.168;16.008;2023-04-15T12:26:17;10.40;99.90
53498;DHT22;39382;47.168;16.008;2023-04-15T12:28:43;10.40;99.90
53498;DHT22;39382;47.168;16.008;2023-04-15T12:31:10;10.20;99.90
53498;DHT22;39382;47.168;16.008;2023-04-15T12:33:36;10.20;99.90
53498;DHT22;39382;47.168;16.008;2023-04-15T12:36:03;10.10;99.90
53498;DHT22;39382;47.168;16.008;2023-04-15T12:38:29;10.20;99.90
53498;DHT22;39382;47.168;16.008;2023-04-15T12:40:56;10.10;99.90
53498;DHT22;39382;47.168;16.008;2023-04-15T12:43:22;10.20;99.90
53498;DHT22;39382;47.168;16.008;2023-04-15T12:45:47;10.20;99.90
53498;DHT22;39382;47.168;16.008;2023-04-15T12:48:13;10.30;99.90
53498;DHT22;39382;47.168;16.008;2023-04-15T12:50:38;10.20;99.90
53498;DHT22;39382;47.168;16.008;2023-04-15T12:53:04;10.20;99.90
53498;DHT22;39382;47.168;16.008;2023-04-15T12:55:30;10.10;99.90
53498;DHT22;39382;47.168;16.008;2023-04-15T12:57:56;10.00;99.90
53498;DHT22;39382;47.168;16.008;2023-04-15T13:00:22;9.70;99.90
53498;DHT22;39382;47.168;16.008;2023-04-15T13:02:48;9.30;99.90
53498;DHT22;39382;47.168;16.008;2023-04-15T13:05:14;9.40;99.90
53498;DHT22;39382;47.168;16.008;2023-04-15T13:07:40;9.40;99.90
53498;DHT22;39382;47.168;16.008;2023-04-15T13:10:07;9.40;99.90
53498;DHT22;39382;47.168;16.008;2023-04-15T13:12:33;9.60;99.90
53498;DHT22;39382;47.168;16.008;2023-04-15T13:15:02;9.70;99.90
53498;DHT22;39382;47.168;16.008;2023-04-15T13:17:28;9.70;99.90
53498;DHT22;39382;47.168;16.008;2023-04-15T13:19:54;9.80;99.90
53498;DHT22;39382;47.168;16.008;2023-04-15T13:22:19;9.90;99.90
53498;DHT22;39382;47.168;16.008;2023-04-15T13:24:46;10.00;99.90
53498;DHT22;39382;47.168;16.008;2023-04-15T13:27:11;10.00;99.90
53498;DHT22;39382;47.168;16.008;2023-04-15T13:29:37;10.20;99.90
53498;DHT22;39382;47.168;16.008;2023-04-15T13:32:05;10.20;99.90
53498;DHT22;39382;47.168;16.008;2023-04-15T13:34:30;10.40;99.90
53498;DHT22;39382;47.168;16.008;2023-04-15T13:36:56;10.30;99.90
53498;DHT22;39382;47.168;16.008;2023-04-15T13:39:22;10.40;99.90
53498;DHT22;39382;47.168;16.008;2023-04-15T13:41:47;10.50;99.90
53498;DHT22;39382;47.168;16.008;2023-04-15T13:44:13;10.60;99.90
53498;DHT22;39382;47.168;16.008;2023-04-15T13:46:39;10.50;99.90
53498;DHT22;39382;47.168;16.008;2023-04-15T13:49:07;10.50;99.90
53498;DHT22;39382;47.168;16.008;2023-04-15T13:51:32;10.50;99.90
53498;DHT22;39382;47.168;16.008;2023-04-15T13:54:00;10.40;99.90
53498;DHT22;39382;47.168;16.008;2023-04-15T13:56:26;10.40;99.90
53498;DHT22;39382;47.168;16.008;2023-04-15T13:58:52;10.30;99.90
53498;DHT22;39382;47.168;16.008;2023-04-15T14:01:19;10.20;99.90
53498;DHT22;39382;47.168;16.008;2023-04-15T14:03:44;10.10;99.90
53498;DHT22;39382;47.168;16.008;2023-04-15T14:06:10;10.20;99.90
53498;DHT22;39382;47.168;16.008;2023-04-15T14:08:36;10.20;99.90
53498;DHT22;39382;47.168;16.008;2023-04-15T14:11:01;10.30;99.90
53498;DHT22;39382;47.168;16.008;2023-04-15T14:13:27;10.20;99.90
53498;DHT22;39382;47.168;16.008;2023-04-15T14:15:53;10.30;99.90
53498;DHT22;39382;47.168;16.008;2023-04-15T14:18:19;10.30;99.90
53498;DHT22;39382;47.168;16.008;2023-04-15T14:20:45;10.30;99.90
53498;DHT22;39382;47.168;16.008;2023-04-15T14:23:10;10.40;99.90
53498;DHT22;39382;47.168;16.008;2023-04-15T14:25:36;10.40;99.90
53498;DHT22;39382;47.168;16.008;2023-04-15T14:28:03;10.50;99.90
53498;DHT22;39382;47.168;16.008;2023-04-15T14:30:29;10.50;99.90
53498;DHT22;39382;47.168;16.008;2023-04-15T14:32:55;10.60;99.90
53498;DHT22;39382;47.168;16.008;2023-04-15T14:35:20;10.60;99.90
53498;DHT22;39382;47.168;16.008;2023-04-15T14:37:46;10.40;99.90
53498;DHT22;39382;47.168;16.008;2023-04-15T14:40:12;10.40;99.90
53498;DHT22;39382;47.168;16.008;2023-04-15T14:42:37;10.40;99.90
53498;DHT22;39382;47.168;16.008;2023-04-15T14:45:03;10.30;99.90
53498;DHT22;39382;47.168;16.008;2023-04-15T14:47:29;10.30;99.90
53498;DHT22;39382;47.168;16.008;2023-04-15T14:49:55;10.30;99.90
53498;DHT22;39382;47.168;16.008;2023-04-15T14:52:21;10.40;99.90
53498;DHT22;39382;47.168;16.008;2023-04-15T14:54:46;10.40;99.90
53498;DHT22;39382;47.168;16.008;2023-04-15T14:57:12;10.30;99.90
53498;DHT22;39382;47.168;16.008;2023-04-15T14:59:38;10.30;99.90
53498;DHT22;39382;47.168;16.008;2023-04-15T15:02:03;10.30;99.90
53498;DHT22;39382;47.168;16.008;2023-04-15T15:04:29;10.30;99.90
53498;DHT22;39382;47.168;16.008;2023-04-15T15:06:57;10.20;99.90
53498;DHT22;39382;47.168;16.008;2023-04-15T15:09:23;10.20;99.90
53498;DHT22;39382;47.168;16.008;2023-04-15T15:11:49;10.10;99.90
53498;DHT22;39382;47.168;16.008;2023-04-15T15:14:15;10.00;99.90
53498;DHT22;39382;47.168;16.008;2023-04-15T15:16:41;10.00;99.90
53498;DHT22;39382;47.168;16.008;2023-04-15T15:19:07;9.90;99.90
53498;DHT22;39382;47.168;16.008;2023-04-15T15:21:33;9.80;99.90
53498;DHT22;39382;47.168;16.008;2023-04-15T15:23:58;9.80;99.90
53498;DHT22;39382;47.168;16.008;2023-04-15T15:26:24;9.60;99.90
53498;DHT22;39382;47.168;16.008;2023-04-15T15:28:52;9.50;99.90
53498;DHT22;39382;47.168;16.008;2023-04-15T15:31:18;9.50;99.90
53498;DHT22;39382;47.168;16.008;2023-04-15T15:33:43;9.50;99.90
53498;DHT22;39382;47.168;16.008;2023-04-15T15:36:09;9.50;99.90
53498;DHT22;39382;47.168;16.008;2023-04-15T15:38:35;9.40;99.90
53498;DHT22;39382;47.168;16.008;2023-04-15T15:41:01;9.40;99.90
53498;DHT22;39382;47.168;16.008;2023-04-15T15:43:26;9.30;99.90
53498;DHT22;39382;47.168;16.008;2023-04-15T15:45:53;9.20;99.90
53498;DHT22;39382;47.168;16.008;2023-04-15T15:48:21;9.10;99.90
53498;DHT22;39382;47.168;16.008;2023-04-15T15:50:47;9.00;99.90
53498;DHT22;39382;47.168;16.008;2023-04-15T15:53:12;9.10;99.90